Time;durP1;ratioP1;P1;durP2;ratioP2;P2;SDS_P1;SDS_P2;PMS_P1;PMS_P2;Temp;Humidity;BMP_temperature;BMP_pressure;BME280_temperature;BME280_humidity;BME280_pressure;Samples;Min_cycle;Max_cycle;Signal;HPM_P1;HPM_P2
2022/10/07 00:01:28;;;;;;;;;;;28.60;99.90;;;;;;4973418;28;19917;-55
2022/10/07 00:03:54;;;;;;;;;;;28.60;99.90;;;;;;4972726;28;19906;-55
2022/10/07 00:06:20;;;;;;;;;;;28.50;99.90;;;;;;4972680;28;19905;-54
2022/10/07 00:08:47;;;;;;;;;;;28.50;99.90;;;;;;4972656;28;19953;-54
2022/10/07 00:11:14;;;;;;;;;;;28.50;99.90;;;;;;4972726;28;19906;-54
2022/10/07 00:13:40;;;;;;;;;;;28.50;99.90;;;;;;4972725;28;19933;-55
2022/10/07 00:16:07;;;;;;;;;;;28.50;99.90;;;;;;4972713;28;19906;-55
2022/10/07 00:18:34;;;;;;;;;;;28.50;99.90;;;;;;4972479;28;19914;-55
2022/10/07 00:21:03;;;;;;;;;;;28.50;99.90;;;;;;4972909;28;19958;-54
2022/10/07 00:23:28;;;;;;;;;;;28.50;99.90;;;;;;4972678;28;19957;-54
2022/10/07 00:25:58;;;;;;;;;;;28.40;99.90;;;;;;4972634;28;19953;-54
2022/10/07 00:28:24;;;;;;;;;;;28.40;99.90;;;;;;4973712;28;19993;-54
2022/10/07 00:30:55;;;;;;;;;;;28.40;99.90;;;;;;4976211;28;20068;-54
2022/10/07 00:33:20;;;;;;;;;;;28.40;99.90;;;;;;4976036;28;19906;-54
2022/10/07 00:35:46;;;;;;;;;;;28.40;99.90;;;;;;4976022;28;19906;-55
2022/10/07 00:38:12;;;;;;;;;;;28.40;99.90;;;;;;4976129;28;19960;-55
2022/10/07 00:40:38;;;;;;;;;;;28.30;99.90;;;;;;4975971;28;19912;-56
2022/10/07 00:43:23;;;;;;;;;;;28.30;99.90;;;;;;4976250;28;19960;-54
2022/10/07 00:45:49;;;;;;;;;;;28.30;99.90;;;;;;4975771;28;19917;-54
2022/10/07 00:48:20;;;;;;;;;;;28.30;99.90;;;;;;4975758;28;19930;-54
2022/10/07 00:50:47;;;;;;;;;;;28.30;99.90;;;;;;4975744;28;20321;-54
2022/10/07 00:53:13;;;;;;;;;;;28.30;99.90;;;;;;4975793;28;19953;-54
2022/10/07 00:55:38;;;;;;;;;;;28.30;99.90;;;;;;4975743;28;19906;-53
2022/10/07 00:58:08;;;;;;;;;;;28.20;99.90;;;;;;4975950;28;19910;-54
2022/10/07 01:00:35;;;;;;;;;;;28.20;99.90;;;;;;4976352;28;20009;-54
2022/10/07 01:03:01;;;;;;;;;;;28.20;99.90;;;;;;4975775;28;19917;-54
2022/10/07 01:05:26;;;;;;;;;;;28.20;99.90;;;;;;4975545;28;20729;-54
2022/10/07 01:07:52;;;;;;;;;;;28.20;99.90;;;;;;4975454;28;20417;-54
2022/10/07 01:10:20;;;;;;;;;;;28.20;99.90;;;;;;4975325;28;19914;-53
2022/10/07 01:13:04;;;;;;;;;;;28.20;99.90;;;;;;4975497;28;19925;-54
2022/10/07 01:15:48;;;;;;;;;;;28.20;99.90;;;;;;4975444;28;20277;-54
2022/10/07 01:18:32;;;;;;;;;;;28.20;99.90;;;;;;4975186;28;19993;-53
2022/10/07 01:21:27;;;;;;;;;;;28.20;99.90;;;;;;4975329;28;19956;-53
2022/10/07 01:24:16;;;;;;;;;;;28.10;99.90;;;;;;4962285;28;19906;-54
2022/10/07 01:27:02;;;;;;;;;;;28.10;99.90;;;;;;4975117;28;19906;-53
2022/10/07 01:29:33;;;;;;;;;;;28.10;99.90;;;;;;4975014;28;19914;-54
2022/10/07 01:32:05;;;;;;;;;;;28.10;99.90;;;;;;4973851;28;19906;-53
2022/10/07 01:34:33;;;;;;;;;;;28.10;99.90;;;;;;4974867;28;19906;-54
2022/10/07 01:37:00;;;;;;;;;;;28.00;99.90;;;;;;4975228;28;19906;-54
2022/10/07 01:39:29;;;;;;;;;;;28.10;99.90;;;;;;4974752;28;19913;-54
2022/10/07 01:41:55;;;;;;;;;;;28.00;99.90;;;;;;4974900;28;20396;-54
2022/10/07 01:44:21;;;;;;;;;;;28.00;99.90;;;;;;4974958;28;19909;-54
2022/10/07 01:46:47;;;;;;;;;;;28.00;99.90;;;;;;4974737;28;19913;-55
2022/10/07 01:49:12;;;;;;;;;;;28.00;99.90;;;;;;4974757;28;20354;-54
2022/10/07 01:51:38;;;;;;;;;;;28.00;99.90;;;;;;4974709;28;20281;-55
2022/10/07 01:54:14;;;;;;;;;;;28.00;99.90;;;;;;4974766;28;19906;-55
2022/10/07 01:56:39;;;;;;;;;;;28.00;99.90;;;;;;4974653;28;20384;-55
2022/10/07 02:01:50;;;;;;;;;;;28.00;99.90;;;;;;5012349;28;19921;-58
2022/10/07 02:04:15;;;;;;;;;;;27.90;99.90;;;;;;5013451;28;20345;-58
2022/10/07 02:06:47;;;;;;;;;;;27.90;99.90;;;;;;5013521;28;19920;-59
2022/10/07 02:09:18;;;;;;;;;;;27.90;99.90;;;;;;5013456;28;20339;-60
2022/10/07 02:11:46;;;;;;;;;;;27.90;99.90;;;;;;5013402;28;20346;-60
2022/10/07 02:14:17;;;;;;;;;;;27.90;99.90;;;;;;5013373;28;19912;-59
2022/10/07 02:16:45;;;;;;;;;;;27.90;99.90;;;;;;5013627;28;20000;-59
2022/10/07 02:19:14;;;;;;;;;;;27.90;99.90;;;;;;5013339;28;19959;-59
2022/10/07 02:21:42;;;;;;;;;;;27.90;99.90;;;;;;5013252;28;19906;-59
2022/10/07 02:24:10;;;;;;;;;;;27.90;99.90;;;;;;5013208;28;20284;-59
2022/10/07 02:26:36;;;;;;;;;;;27.80;99.90;;;;;;5013304;28;19968;-59
2022/10/07 02:29:03;;;;;;;;;;;27.90;99.90;;;;;;5013190;28;19909;-59
2022/10/07 02:31:30;;;;;;;;;;;27.90;99.90;;;;;;5012902;28;19905;-59
2022/10/07 02:33:57;;;;;;;;;;;27.90;99.90;;;;;;5012967;28;19979;-58
2022/10/07 02:36:24;;;;;;;;;;;27.80;99.90;;;;;;5012940;28;19905;-57
2022/10/07 02:38:51;;;;;;;;;;;27.80;99.90;;;;;;5012836;28;19996;-57
2022/10/07 02:41:30;;;;;;;;;;;27.80;99.90;;;;;;5012682;28;19905;-58
2022/10/07 02:43:58;;;;;;;;;;;27.80;99.90;;;;;;5012717;28;20369;-58
2022/10/07 02:46:25;;;;;;;;;;;27.80;99.90;;;;;;5011413;28;20280;-58
2022/10/07 02:48:57;;;;;;;;;;;27.80;99.90;;;;;;5012551;28;19909;-59
2022/10/07 02:51:26;;;;;;;;;;;27.70;99.90;;;;;;5012018;28;19909;-58
2022/10/07 02:53:52;;;;;;;;;;;27.70;99.90;;;;;;5012531;28;19928;-59
2022/10/07 02:56:19;;;;;;;;;;;27.70;99.90;;;;;;5012602;28;20349;-58
2022/10/07 02:58:45;;;;;;;;;;;27.70;99.90;;;;;;5012426;28;20337;-58
2022/10/07 03:01:15;;;;;;;;;;;27.70;99.90;;;;;;5013054;28;19924;-58
2022/10/07 03:03:41;;;;;;;;;;;27.70;99.90;;;;;;5011416;28;19959;-58
2022/10/07 03:06:07;;;;;;;;;;;27.70;99.90;;;;;;5012558;28;19944;-57
2022/10/07 03:08:33;;;;;;;;;;;27.70;99.90;;;;;;5012450;28;19960;-58
2022/10/07 03:10:58;;;;;;;;;;;27.60;99.90;;;;;;5012362;28;19924;-58
2022/10/07 03:13:24;;;;;;;;;;;27.70;99.90;;;;;;5012186;28;19959;-58
2022/10/07 03:15:50;;;;;;;;;;;27.60;99.90;;;;;;5012191;28;20024;-57
2022/10/07 03:18:26;;;;;;;;;;;27.60;99.90;;;;;;5012440;28;19911;-58
2022/10/07 03:20:55;;;;;;;;;;;27.60;99.90;;;;;;5012091;28;19959;-59
2022/10/07 03:23:24;;;;;;;;;;;27.60;99.90;;;;;;5012078;28;20411;-59
2022/10/07 03:25:50;;;;;;;;;;;27.60;99.90;;;;;;5012121;28;20361;-59
2022/10/07 03:28:17;;;;;;;;;;;27.60;99.90;;;;;;5012087;28;19905;-58
2022/10/07 03:30:43;;;;;;;;;;;27.50;99.90;;;;;;5011892;28;20377;-57
2022/10/07 03:33:08;;;;;;;;;;;27.50;99.90;;;;;;5012146;28;19906;-57
2022/10/07 03:35:34;;;;;;;;;;;27.50;99.90;;;;;;5011944;28;20426;-58
2022/10/07 03:37:59;;;;;;;;;;;27.50;99.90;;;;;;5027111;28;19912;-59
2022/10/07 03:40:25;;;;;;;;;;;27.50;99.90;;;;;;5011938;28;19948;-58
2022/10/07 03:42:51;;;;;;;;;;;27.50;99.90;;;;;;5012006;28;19951;-58
2022/10/07 03:45:18;;;;;;;;;;;27.50;99.90;;;;;;5011933;28;19960;-58
2022/10/07 03:47:43;;;;;;;;;;;27.50;99.90;;;;;;5012090;28;19905;-58
2022/10/07 03:50:09;;;;;;;;;;;27.50;99.90;;;;;;5012018;28;19921;-59
2022/10/07 03:52:35;;;;;;;;;;;27.50;99.90;;;;;;5011932;28;19905;-60
2022/10/07 03:55:01;;;;;;;;;;;27.50;99.90;;;;;;5011961;28;20359;-60
2022/10/07 04:00:11;;;;;;;;;;;27.40;99.90;;;;;;5012691;28;19995;-59
2022/10/07 04:02:37;;;;;;;;;;;27.40;99.90;;;;;;5012605;28;20116;-59
2022/10/07 04:05:02;;;;;;;;;;;27.40;99.90;;;;;;5015838;28;19905;-59
2022/10/07 04:07:28;;;;;;;;;;;27.40;99.90;;;;;;5015692;28;19912;-59
2022/10/07 04:09:53;;;;;;;;;;;27.40;99.90;;;;;;5015640;28;19914;-57
2022/10/07 04:12:20;;;;;;;;;;;27.40;99.90;;;;;;5015594;28;19960;-57
2022/10/07 04:14:45;;;;;;;;;;;27.30;99.90;;;;;;5015415;28;19905;-56
2022/10/07 04:17:11;;;;;;;;;;;27.40;99.90;;;;;;5015606;28;20413;-57
2022/10/07 04:19:36;;;;;;;;;;;27.30;99.90;;;;;;5015367;28;19968;-57
2022/10/07 04:22:02;;;;;;;;;;;27.40;99.90;;;;;;5030563;28;19916;-56
2022/10/07 04:24:27;;;;;;;;;;;27.30;99.90;;;;;;5015307;28;19905;-57
2022/10/07 04:26:53;;;;;;;;;;;27.30;99.90;;;;;;5015517;28;19959;-56
2022/10/07 04:29:19;;;;;;;;;;;27.30;99.90;;;;;;5015250;28;19933;-58
2022/10/07 04:31:44;;;;;;;;;;;27.30;99.90;;;;;;5015450;28;20242;-58
2022/10/07 04:34:10;;;;;;;;;;;27.30;99.90;;;;;;5015244;28;19960;-58
2022/10/07 04:36:36;;;;;;;;;;;27.30;99.90;;;;;;5030445;28;20048;-58
2022/10/07 04:39:01;;;;;;;;;;;27.30;99.90;;;;;;5015181;28;20308;-59
2022/10/07 04:41:27;;;;;;;;;;;27.20;99.90;;;;;;5015101;28;19928;-58
2022/10/07 04:43:53;;;;;;;;;;;27.20;99.90;;;;;;5015015;28;19951;-59
2022/10/07 04:46:18;;;;;;;;;;;27.30;99.90;;;;;;5015057;28;19917;-59
2022/10/07 04:48:47;;;;;;;;;;;27.20;99.90;;;;;;5014930;28;19928;-58
2022/10/07 04:51:14;;;;;;;;;;;27.20;99.90;;;;;;5015060;28;19905;-58
2022/10/07 04:53:40;;;;;;;;;;;27.20;99.90;;;;;;5014761;28;19905;-58
2022/10/07 04:56:06;;;;;;;;;;;27.20;99.90;;;;;;5014761;28;19915;-60
2022/10/07 04:58:32;;;;;;;;;;;27.20;99.90;;;;;;5014693;28;19912;-60
2022/10/07 05:00:59;;;;;;;;;;;27.20;99.90;;;;;;5014430;28;19918;-60
2022/10/07 05:03:25;;;;;;;;;;;27.20;99.90;;;;;;5014585;28;19988;-60
2022/10/07 05:05:52;;;;;;;;;;;27.20;99.90;;;;;;5014647;28;19945;-59
2022/10/07 05:08:19;;;;;;;;;;;27.20;99.90;;;;;;5014615;28;19992;-59
2022/10/07 05:10:45;;;;;;;;;;;27.20;99.90;;;;;;5014692;28;20296;-58
2022/10/07 05:13:12;;;;;;;;;;;27.20;99.90;;;;;;5014329;28;20020;-59
2022/10/07 05:15:51;;;;;;;;;;;27.20;99.90;;;;;;5014199;28;20408;-58
2022/10/07 05:18:18;;;;;;;;;;;27.10;99.90;;;;;;5014629;28;19906;-60
2022/10/07 05:20:45;;;;;;;;;;;27.10;99.90;;;;;;5014294;28;19929;-60
2022/10/07 05:23:11;;;;;;;;;;;27.10;99.90;;;;;;5014153;28;19985;-59
2022/10/07 05:25:37;;;;;;;;;;;27.10;99.90;;;;;;5012916;28;19909;-59
2022/10/07 05:28:02;;;;;;;;;;;27.10;99.90;;;;;;5014110;28;20261;-58
2022/10/07 05:30:28;;;;;;;;;;;27.10;99.90;;;;;;5013963;28;20008;-59
2022/10/07 05:32:54;;;;;;;;;;;27.10;99.90;;;;;;5014094;28;19912;-58
2022/10/07 05:35:20;;;;;;;;;;;27.10;99.90;;;;;;5013928;28;19905;-59
2022/10/07 05:37:46;;;;;;;;;;;27.10;99.90;;;;;;5014062;28;20043;-58
2022/10/07 05:40:12;;;;;;;;;;;27.10;99.90;;;;;;5013825;28;19992;-57
2022/10/07 05:42:37;;;;;;;;;;;27.10;99.90;;;;;;5013971;28;19948;-57
2022/10/07 05:45:04;;;;;;;;;;;27.00;99.90;;;;;;5013765;28;19914;-58
2022/10/07 05:47:32;;;;;;;;;;;27.00;99.90;;;;;;5013612;28;19944;-58
2022/10/07 05:49:57;;;;;;;;;;;27.00;99.90;;;;;;5013603;28;19975;-58
2022/10/07 05:52:23;;;;;;;;;;;27.00;99.90;;;;;;5013664;28;20428;-59
2022/10/07 05:54:49;;;;;;;;;;;27.00;99.90;;;;;;5013792;28;19906;-59
2022/10/07 05:57:14;;;;;;;;;;;27.00;99.90;;;;;;5013539;28;20281;-58
2022/10/07 05:59:41;;;;;;;;;;;27.00;99.90;;;;;;5013340;28;19917;-59
2022/10/07 06:02:12;;;;;;;;;;;27.00;99.90;;;;;;5013430;28;20365;-59
2022/10/07 06:04:37;;;;;;;;;;;27.00;99.90;;;;;;5013378;28;20384;-59
2022/10/07 06:07:04;;;;;;;;;;;27.00;99.90;;;;;;5013380;28;19910;-60
2022/10/07 06:14:58;;;;;;;;;;;27.00;99.90;;;;;;5013288;28;19912;-58
2022/10/07 06:17:23;;;;;;;;;;;26.90;99.90;;;;;;5028273;28;19906;-60
2022/10/07 06:19:49;;;;;;;;;;;26.90;99.90;;;;;;5028763;28;19912;-59
2022/10/07 06:22:15;;;;;;;;;;;26.90;99.90;;;;;;5013029;28;19910;-57
2022/10/07 06:24:40;;;;;;;;;;;26.90;99.90;;;;;;5013051;28;19905;-57
2022/10/07 06:27:06;;;;;;;;;;;26.90;99.90;;;;;;5012198;28;19905;-59
2022/10/07 06:29:32;;;;;;;;;;;26.90;99.90;;;;;;5013061;28;20388;-56
2022/10/07 06:31:57;;;;;;;;;;;26.90;99.90;;;;;;5012715;28;20353;-58
2022/10/07 06:34:23;;;;;;;;;;;26.90;99.90;;;;;;5012953;28;19991;-62
2022/10/07 06:36:48;;;;;;;;;;;26.90;99.90;;;;;;5013032;28;20365;-58
2022/10/07 06:39:15;;;;;;;;;;;26.90;99.90;;;;;;5012724;28;19905;-56
2022/10/07 06:41:41;;;;;;;;;;;26.90;99.90;;;;;;5012964;28;20246;-57
2022/10/07 06:44:06;;;;;;;;;;;26.90;99.90;;;;;;5012767;28;19920;-58
2022/10/07 06:46:32;;;;;;;;;;;26.90;99.90;;;;;;5012617;28;19905;-58
2022/10/07 06:48:57;;;;;;;;;;;26.90;99.90;;;;;;5027798;28;19963;-59
2022/10/07 06:51:23;;;;;;;;;;;26.90;99.90;;;;;;5027784;28;20361;-58
2022/10/07 06:53:53;;;;;;;;;;;26.80;99.90;;;;;;5012761;28;19959;-59
2022/10/07 06:56:19;;;;;;;;;;;26.80;99.90;;;;;;5012705;28;20004;-59
2022/10/07 06:58:45;;;;;;;;;;;26.80;99.90;;;;;;5012139;28;19911;-59
2022/10/07 07:01:11;;;;;;;;;;;26.80;99.90;;;;;;5012350;28;19924;-58
2022/10/07 07:03:37;;;;;;;;;;;26.90;99.90;;;;;;5012131;28;19909;-58
2022/10/07 07:06:03;;;;;;;;;;;26.80;99.90;;;;;;5012138;28;19913;-59
2022/10/07 07:08:33;;;;;;;;;;;26.90;99.90;;;;;;5012144;28;19910;-59
2022/10/07 07:11:02;;;;;;;;;;;26.80;99.90;;;;;;5012110;28;19989;-58
2022/10/07 07:13:28;;;;;;;;;;;26.90;99.90;;;;;;5012222;28;19911;-59
2022/10/07 07:15:57;;;;;;;;;;;26.90;99.90;;;;;;5012234;28;19905;-59
2022/10/07 07:18:23;;;;;;;;;;;26.90;99.90;;;;;;5012266;28;20357;-58
2022/10/07 07:20:49;;;;;;;;;;;26.90;99.90;;;;;;5012123;28;19911;-58
2022/10/07 07:23:14;;;;;;;;;;;26.90;99.90;;;;;;5012063;28;19909;-60
2022/10/07 07:25:44;;;;;;;;;;;26.90;99.90;;;;;;5012160;28;19921;-59
2022/10/07 07:28:11;;;;;;;;;;;26.90;99.90;;;;;;5011899;28;19905;-59
2022/10/07 07:30:37;;;;;;;;;;;26.90;99.90;;;;;;5011939;28;19913;-57
2022/10/07 07:33:04;;;;;;;;;;;26.90;99.90;;;;;;5012034;28;20260;-58
2022/10/07 07:35:31;;;;;;;;;;;27.00;99.90;;;;;;5012009;28;19909;-57
2022/10/07 07:38:00;;;;;;;;;;;27.00;99.90;;;;;;5011457;28;19906;-58
2022/10/07 07:40:26;;;;;;;;;;;27.00;99.90;;;;;;5012004;28;19905;-57
2022/10/07 07:42:55;;;;;;;;;;;27.00;99.90;;;;;;5011989;28;20016;-57
2022/10/07 07:45:21;;;;;;;;;;;27.10;99.90;;;;;;5011846;28;19909;-58
2022/10/07 07:47:48;;;;;;;;;;;27.10;99.90;;;;;;5011861;28;20150;-57
2022/10/07 07:50:15;;;;;;;;;;;27.10;99.90;;;;;;5011737;28;19913;-58
2022/10/07 07:52:41;;;;;;;;;;;27.10;99.90;;;;;;5011569;28;19996;-57
2022/10/07 07:55:06;;;;;;;;;;;27.10;99.90;;;;;;5011609;28;19992;-57
2022/10/07 07:57:32;;;;;;;;;;;27.10;99.90;;;;;;5011649;28;20412;-58
2022/10/07 07:59:57;;;;;;;;;;;27.10;99.90;;;;;;5011551;28;19918;-58
2022/10/07 08:02:23;;;;;;;;;;;27.20;99.90;;;;;;5011798;28;19944;-57
2022/10/07 08:04:49;;;;;;;;;;;27.20;99.90;;;;;;5011616;28;19909;-57
2022/10/07 08:07:14;;;;;;;;;;;27.20;99.90;;;;;;5011538;28;19912;-57
2022/10/07 08:09:40;;;;;;;;;;;27.20;99.90;;;;;;5011602;28;19967;-57
2022/10/07 08:12:06;;;;;;;;;;;27.20;99.90;;;;;;5011486;28;19905;-57
2022/10/07 08:14:34;;;;;;;;;;;27.20;99.90;;;;;;5011459;28;20334;-57
2022/10/07 08:16:59;;;;;;;;;;;27.20;99.90;;;;;;5011557;28;20004;-57
2022/10/07 08:19:25;;;;;;;;;;;27.30;99.90;;;;;;5011644;28;19912;-57
2022/10/07 08:21:51;;;;;;;;;;;27.20;99.90;;;;;;5011511;28;19971;-58
2022/10/07 08:24:17;;;;;;;;;;;27.30;99.90;;;;;;5011487;28;19963;-58
2022/10/07 08:26:43;;;;;;;;;;;27.30;99.90;;;;;;5011347;28;19905;-57
2022/10/07 08:29:08;;;;;;;;;;;27.30;99.90;;;;;;5011329;28;19925;-58
2022/10/07 08:31:34;;;;;;;;;;;27.30;99.90;;;;;;5011384;28;20475;-57
2022/10/07 08:34:01;;;;;;;;;;;27.30;99.90;;;;;;5011094;28;20326;-58
2022/10/07 08:36:27;;;;;;;;;;;27.40;99.90;;;;;;5011441;28;19988;-58
2022/10/07 08:38:53;;;;;;;;;;;27.40;99.90;;;;;;5011086;28;19944;-58
2022/10/07 08:41:19;;;;;;;;;;;27.40;99.90;;;;;;5011239;28;20389;-57
2022/10/07 08:43:49;;;;;;;;;;;27.40;99.90;;;;;;5026420;28;19905;-58
2022/10/07 08:46:15;;;;;;;;;;;27.40;99.90;;;;;;5011337;28;19959;-58
2022/10/07 08:48:43;;;;;;;;;;;27.40;99.90;;;;;;5011331;28;19906;-58
2022/10/07 08:51:16;;;;;;;;;;;27.40;99.90;;;;;;5014774;28;19910;-58
2022/10/07 08:53:43;;;;;;;;;;;27.40;99.90;;;;;;5014600;28;20090;-57
2022/10/07 08:56:19;;;;;;;;;;;27.40;99.90;;;;;;5014642;28;20341;-57
2022/10/07 08:58:57;;;;;;;;;;;27.50;99.90;;;;;;5014623;28;19911;-58
2022/10/07 09:01:44;;;;;;;;;;;27.50;99.90;;;;;;5014346;28;19918;-57
2022/10/07 09:04:19;;;;;;;;;;;27.40;99.90;;;;;;5014463;28;20043;-56
2022/10/07 09:06:50;;;;;;;;;;;27.50;99.90;;;;;;5014527;28;20320;-56
2022/10/07 09:09:21;;;;;;;;;;;27.50;99.90;;;;;;5014417;28;19953;-56
2022/10/07 09:11:48;;;;;;;;;;;27.50;99.90;;;;;;5014435;28;20277;-56
2022/10/07 09:14:19;;;;;;;;;;;27.50;99.90;;;;;;5014188;28;19905;-57
2022/10/07 09:16:45;;;;;;;;;;;27.50;99.90;;;;;;5029523;28;20317;-57
2022/10/07 09:19:16;;;;;;;;;;;27.50;99.90;;;;;;5014316;28;19952;-57
2022/10/07 09:21:43;;;;;;;;;;;27.50;99.90;;;;;;5014176;28;20406;-57
2022/10/07 09:24:18;;;;;;;;;;;27.60;99.90;;;;;;5014142;28;19905;-57
2022/10/07 09:26:43;;;;;;;;;;;27.60;99.90;;;;;;5014028;28;19905;-56
2022/10/07 09:29:09;;;;;;;;;;;27.60;99.90;;;;;;5014019;28;19914;-57
2022/10/07 09:31:35;;;;;;;;;;;27.60;99.90;;;;;;5029073;28;19909;-57
2022/10/07 09:34:01;;;;;;;;;;;27.60;99.90;;;;;;5012922;28;20281;-57
2022/10/07 09:36:27;;;;;;;;;;;27.60;99.90;;;;;;5014049;28;19948;-56
2022/10/07 09:38:52;;;;;;;;;;;27.70;99.90;;;;;;5013740;28;19968;-57
2022/10/07 09:41:18;;;;;;;;;;;27.70;99.90;;;;;;5013849;28;19916;-56
2022/10/07 09:43:58;;;;;;;;;;;27.70;99.90;;;;;;5013837;28;19959;-57
2022/10/07 09:46:42;;;;;;;;;;;27.70;99.90;;;;;;5013639;28;19955;-57
2022/10/07 09:49:25;;;;;;;;;;;27.80;99.90;;;;;;5013677;28;19913;-57
2022/10/07 09:52:17;;;;;;;;;;;27.80;99.90;;;;;;5013620;28;19931;-57
2022/10/07 09:54:43;;;;;;;;;;;27.80;99.90;;;;;;5006657;28;20480;-58
2022/10/07 09:57:26;;;;;;;;;;;27.90;99.90;;;;;;5013610;28;20310;-57
2022/10/07 10:00:11;;;;;;;;;;;27.80;99.90;;;;;;5013401;28;20242;-58
2022/10/07 10:02:44;;;;;;;;;;;27.90;99.90;;;;;;5013409;28;19916;-58
2022/10/07 10:05:20;;;;;;;;;;;27.90;99.90;;;;;;5013569;28;19954;-58
2022/10/07 10:07:47;;;;;;;;;;;27.90;99.90;;;;;;5013699;28;19913;-58
2022/10/07 10:10:17;;;;;;;;;;;28.00;99.90;;;;;;5013197;28;19921;-58
2022/10/07 10:12:46;;;;;;;;;;;28.00;99.90;;;;;;5013270;28;19979;-56
2022/10/07 10:15:35;;;;;;;;;;;28.00;99.90;;;;;;5013482;28;19905;-56
2022/10/07 10:18:02;;;;;;;;;;;28.10;99.90;;;;;;5013412;28;19905;-57
2022/10/07 10:20:43;;;;;;;;;;;28.10;99.90;;;;;;5028326;28;20298;-57
2022/10/07 10:23:22;;;;;;;;;;;28.10;99.90;;;;;;5013084;28;19905;-56
2022/10/07 10:28:38;;;;;;;;;;;28.20;99.90;;;;;;5013043;28;19959;-56
2022/10/07 10:31:12;;;;;;;;;;;28.20;99.90;;;;;;5013119;28;19968;-57
2022/10/07 10:33:43;;;;;;;;;;;28.20;99.90;;;;;;5013131;28;19932;-57
2022/10/07 10:36:13;;;;;;;;;;;28.20;99.90;;;;;;5013073;28;19996;-58
2022/10/07 10:38:39;;;;;;;;;;;28.30;99.90;;;;;;5012731;28;19936;-58
2022/10/07 10:41:07;;;;;;;;;;;28.30;99.90;;;;;;5013112;28;19906;-57
2022/10/07 10:43:40;;;;;;;;;;;28.30;99.90;;;;;;5028015;28;19912;-58
2022/10/07 10:46:09;;;;;;;;;;;28.30;99.90;;;;;;5012751;28;20004;-59
2022/10/07 10:48:38;;;;;;;;;;;28.30;99.90;;;;;;5012687;28;19905;-58
2022/10/07 10:51:24;;;;;;;;;;;28.40;99.90;;;;;;5012565;28;19921;-57
2022/10/07 10:54:08;;;;;;;;;;;28.40;99.90;;;;;;5012421;28;20043;-56
2022/10/07 10:56:42;;;;;;;;;;;28.50;99.90;;;;;;5012382;28;19905;-57
2022/10/07 10:59:08;;;;;;;;;;;28.50;99.90;;;;;;5012374;28;19905;-57
2022/10/07 11:01:35;;;;;;;;;;;28.50;99.90;;;;;;5012381;28;19940;-57
2022/10/07 11:04:12;;;;;;;;;;;28.50;99.90;;;;;;5012276;28;20000;-58
2022/10/07 11:06:39;;;;;;;;;;;28.50;99.90;;;;;;5012230;28;19905;-57
2022/10/07 11:09:05;;;;;;;;;;;28.60;99.90;;;;;;5012302;28;20319;-57
2022/10/07 11:11:31;;;;;;;;;;;28.60;99.90;;;;;;5011584;28;19992;-57
2022/10/07 11:13:56;;;;;;;;;;;28.60;99.90;;;;;;5010751;28;20006;-57
2022/10/07 11:16:40;;;;;;;;;;;28.60;99.90;;;;;;5012133;28;19912;-57
2022/10/07 11:19:08;;;;;;;;;;;28.70;99.90;;;;;;5012417;28;19912;-57
2022/10/07 11:21:34;;;;;;;;;;;28.70;99.90;;;;;;5012498;28;19905;-57
2022/10/07 11:24:09;;;;;;;;;;;28.70;99.90;;;;;;5011992;28;19915;-58
2022/10/07 11:26:37;;;;;;;;;;;28.80;99.90;;;;;;5012217;28;20296;-58
2022/10/07 11:29:10;;;;;;;;;;;28.80;99.90;;;;;;5011992;28;19909;-59
2022/10/07 11:31:39;;;;;;;;;;;28.80;99.90;;;;;;5012408;28;20029;-58
2022/10/07 11:34:25;;;;;;;;;;;28.80;99.90;;;;;;5012119;28;19908;-59
2022/10/07 11:36:57;;;;;;;;;;;28.90;99.90;;;;;;5001156;28;19988;-59
2022/10/07 11:39:23;;;;;;;;;;;28.90;99.90;;;;;;5011922;28;19960;-58
2022/10/07 11:42:05;;;;;;;;;;;28.90;99.90;;;;;;5012071;28;19917;-59
2022/10/07 11:44:36;;;;;;;;;;;29.00;99.90;;;;;;5011891;28;19905;-58
2022/10/07 11:47:04;;;;;;;;;;;28.90;99.90;;;;;;5011965;28;19905;-59
2022/10/07 11:49:29;;;;;;;;;;;29.00;99.90;;;;;;5011614;28;19917;-58
2022/10/07 11:52:18;;;;;;;;;;;29.00;99.90;;;;;;5011729;28;20309;-58
2022/10/07 11:54:58;;;;;;;;;;;29.00;99.90;;;;;;5011754;28;19905;-59
2022/10/07 11:57:25;;;;;;;;;;;29.00;99.90;;;;;;5011649;28;20357;-59
2022/10/07 12:00:03;;;;;;;;;;;29.00;99.90;;;;;;5026794;28;19929;-57
2022/10/07 12:02:29;;;;;;;;;;;29.00;99.90;;;;;;5011693;28;19960;-57
2022/10/07 12:04:54;;;;;;;;;;;29.00;99.90;;;;;;5011625;28;19913;-58
2022/10/07 12:07:37;;;;;;;;;;;29.00;99.90;;;;;;5011771;28;20316;-57
2022/10/07 12:10:02;;;;;;;;;;;29.00;99.90;;;;;;5011706;28;19983;-57
2022/10/07 12:12:48;;;;;;;;;;;29.10;99.90;;;;;;5011648;28;20300;-58
2022/10/07 12:15:33;;;;;;;;;;;29.10;99.90;;;;;;5011067;28;19905;-58
2022/10/07 12:18:04;;;;;;;;;;;29.10;99.90;;;;;;5011377;28;19905;-58
2022/10/07 12:20:33;;;;;;;;;;;29.10;99.90;;;;;;5011464;28;20341;-57
2022/10/07 12:23:28;;;;;;;;;;;29.20;99.90;;;;;;5011538;28;20258;-57
2022/10/07 12:25:54;;;;;;;;;;;29.20;99.90;;;;;;5015070;28;19975;-57
2022/10/07 12:28:35;;;;;;;;;;;29.20;99.90;;;;;;5015328;28;19905;-58
2022/10/07 12:31:00;;;;;;;;;;;29.20;99.90;;;;;;5015174;28;19917;-58
2022/10/07 12:33:44;;;;;;;;;;;29.20;99.90;;;;;;5015066;28;20280;-58
2022/10/07 12:36:29;;;;;;;;;;;29.30;99.90;;;;;;5015240;28;19916;-57
2022/10/07 12:38:55;;;;;;;;;;;29.30;99.90;;;;;;5015021;28;20283;-57
2022/10/07 12:41:23;;;;;;;;;;;29.30;99.90;;;;;;5015046;28;19906;-58
2022/10/07 12:43:54;;;;;;;;;;;29.30;99.90;;;;;;5015068;28;19906;-57
2022/10/07 12:46:20;;;;;;;;;;;29.40;99.90;;;;;;5014863;28;20000;-58
2022/10/07 12:48:59;;;;;;;;;;;29.40;99.90;;;;;;5014673;28;19959;-57
2022/10/07 12:51:29;;;;;;;;;;;29.40;99.90;;;;;;5030013;28;19917;-57
2022/10/07 12:53:57;;;;;;;;;;;29.40;99.90;;;;;;5014834;28;19910;-57
2022/10/07 12:56:25;;;;;;;;;;;29.40;99.90;;;;;;5014714;28;19984;-57
2022/10/07 13:02:09;;;;;;;;;;;29.50;99.90;;;;;;5014586;28;20464;-57
2022/10/07 13:04:55;;;;;;;;;;;29.50;99.90;;;;;;5014479;28;19952;-57
2022/10/07 13:07:44;;;;;;;;;;;29.50;99.90;;;;;;5014165;28;19905;-58
2022/10/07 13:10:16;;;;;;;;;;;29.50;99.90;;;;;;5014629;28;19928;-57
2022/10/07 13:12:50;;;;;;;;;;;29.50;99.90;;;;;;5014621;28;19995;-57
2022/10/07 13:15:19;;;;;;;;;;;29.60;99.90;;;;;;5029438;28;19905;-58
2022/10/07 13:17:54;;;;;;;;;;;29.60;99.90;;;;;;5014142;28;19906;-58
2022/10/07 13:20:19;;;;;;;;;;;29.60;99.90;;;;;;5014394;28;19921;-59
2022/10/07 13:22:46;;;;;;;;;;;29.60;99.90;;;;;;5014084;28;19906;-58
2022/10/07 13:25:12;;;;;;;;;;;29.60;99.90;;;;;;5014310;28;19948;-58
2022/10/07 13:27:40;;;;;;;;;;;29.70;99.90;;;;;;5014194;28;19905;-57
2022/10/07 13:30:07;;;;;;;;;;;29.70;99.90;;;;;;5013983;28;19913;-58
2022/10/07 13:32:33;;;;;;;;;;;29.70;99.90;;;;;;5014025;28;19951;-57
2022/10/07 13:35:00;;;;;;;;;;;29.70;99.90;;;;;;5013717;28;19975;-57
2022/10/07 13:37:30;;;;;;;;;;;29.70;99.90;;;;;;5013940;28;19951;-58
2022/10/07 13:39:57;;;;;;;;;;;29.80;99.90;;;;;;5014032;28;20012;-57
2022/10/07 13:42:27;;;;;;;;;;;29.70;99.90;;;;;;5013907;28;19905;-59
2022/10/07 13:44:58;;;;;;;;;;;29.80;99.90;;;;;;5013903;28;19944;-58
2022/10/07 13:47:25;;;;;;;;;;;29.80;99.90;;;;;;5013618;28;20361;-58
2022/10/07 13:49:52;;;;;;;;;;;29.80;99.90;;;;;;5013505;28;19959;-58
2022/10/07 13:52:17;;;;;;;;;;;29.80;99.90;;;;;;5013943;28;19909;-58
2022/10/07 13:54:48;;;;;;;;;;;29.80;99.90;;;;;;5013732;28;19905;-58
2022/10/07 13:57:14;;;;;;;;;;;29.80;99.90;;;;;;5013800;28;20320;-58
2022/10/07 13:59:39;;;;;;;;;;;29.80;99.90;;;;;;5013235;28;19955;-58
2022/10/07 14:02:08;;;;;;;;;;;29.90;99.90;;;;;;5013549;28;19917;-57
2022/10/07 14:04:35;;;;;;;;;;;29.90;99.90;;;;;;5013351;28;19913;-58
2022/10/07 14:07:07;;;;;;;;;;;29.90;99.90;;;;;;5013247;28;20000;-58
2022/10/07 14:09:36;;;;;;;;;;;29.90;99.90;;;;;;5013238;28;19913;-57
2022/10/07 14:12:03;;;;;;;;;;;29.90;99.90;;;;;;5013388;28;20324;-57
2022/10/07 14:14:38;;;;;;;;;;;29.90;99.90;;;;;;5013231;28;19905;-57
2022/10/07 14:17:15;;;;;;;;;;;29.90;99.90;;;;;;5013214;28;19905;-57
2022/10/07 14:19:41;;;;;;;;;;;30.00;99.90;;;;;;5013249;28;19905;-59
2022/10/07 14:22:15;;;;;;;;;;;29.90;99.90;;;;;;5013115;28;19909;-58
2022/10/07 14:24:40;;;;;;;;;;;30.00;99.90;;;;;;5013070;28;19906;-58
2022/10/07 14:27:26;;;;;;;;;;;30.00;99.90;;;;;;5011696;28;20424;-58
2022/10/07 14:29:52;;;;;;;;;;;30.00;99.90;;;;;;5012919;28;19920;-58
2022/10/07 14:35:19;;;;;;;;;;;30.10;99.90;;;;;;5013239;28;19959;-59
2022/10/07 14:37:46;;;;;;;;;;;30.10;99.90;;;;;;5012977;28;20324;-59
2022/10/07 14:40:19;;;;;;;;;;;30.10;99.90;;;;;;5012821;28;19971;-60
2022/10/07 14:42:44;;;;;;;;;;;30.20;99.90;;;;;;5012947;28;19906;-59
2022/10/07 14:45:14;;;;;;;;;;;30.20;99.90;;;;;;5012953;28;20328;-59
2022/10/07 14:47:40;;;;;;;;;;;30.20;99.90;;;;;;5011940;28;20312;-59